createdAt,value
2018-02-22T00:00:58.882Z,-0.44
2018-02-22T00:03:26.425Z,-0.43
2018-02-22T00:05:53.892Z,-0.45
2018-02-22T00:08:21.441Z,-0.46
2018-02-22T00:10:48.926Z,-0.48
2018-02-22T00:13:16.402Z,-0.53
2018-02-22T00:15:43.970Z,-0.55
2018-02-22T00:18:11.525Z,-0.55
2018-02-22T00:20:38.991Z,-0.56
2018-02-22T00:23:06.475Z,-0.59
2018-02-22T00:25:34.038Z,-0.62
2018-02-22T00:28:01.507Z,-0.62
2018-02-22T00:30:28.992Z,-0.64
2018-02-22T00:32:56.487Z,-0.63
2018-02-22T00:35:23.946Z,-0.64
2018-02-22T00:37:51.422Z,-0.64
2018-02-22T00:40:18.975Z,-0.64
2018-02-22T00:42:46.440Z,-0.67
2018-02-22T00:45:13.909Z,-0.69
2018-02-22T00:47:41.393Z,-0.69
2018-02-22T00:50:08.859Z,-0.70
2018-02-22T00:52:36.335Z,-0.73
2018-02-22T00:55:03.842Z,-0.74
2018-02-22T00:57:31.353Z,-0.76
2018-02-22T00:59:58.932Z,-0.75
2018-02-22T01:02:26.564Z,-0.73
2018-02-22T01:04:54.035Z,-0.72
2018-02-22T01:07:21.507Z,-0.67
2018-02-22T01:09:49.007Z,-0.58
2018-02-22T01:12:16.474Z,-0.56
2018-02-22T01:14:43.969Z,-0.51
2018-02-22T01:17:11.467Z,-0.48
2018-02-22T01:19:38.987Z,-0.44
2018-02-22T01:22:06.467Z,-0.44
2018-02-22T01:24:33.942Z,-0.45
2018-02-22T01:27:01.400Z,-0.46
2018-02-22T01:29:28.906Z,-0.43
2018-02-22T01:31:56.467Z,-0.45
2018-02-22T01:34:23.934Z,-0.46
2018-02-22T01:36:51.406Z,-0.45
2018-02-22T01:39:18.883Z,-0.44
2018-02-22T01:41:46.378Z,-0.42
2018-02-22T01:44:13.838Z,-0.38
2018-02-22T01:46:41.298Z,-0.35
2018-02-22T01:49:08.778Z,-0.32
2018-02-22T01:51:36.246Z,-0.34
2018-02-22T01:54:03.785Z,-0.34
2018-02-22T01:56:31.302Z,-0.33
2018-02-22T01:58:58.757Z,-0.35
2018-02-22T02:01:26.218Z,-0.34
2018-02-22T02:03:53.731Z,-0.41
2018-02-22T02:06:21.186Z,-0.44
2018-02-22T02:08:48.727Z,-0.49
2018-02-22T02:11:16.203Z,-0.50
2018-02-22T02:13:43.671Z,-0.50
2018-02-22T02:16:11.149Z,-0.49
2018-02-22T02:18:38.634Z,-0.51
2018-02-22T02:21:06.099Z,-0.49
2018-02-22T02:23:33.563Z,-0.53
2018-02-22T02:26:01.038Z,-0.59
2018-02-22T02:28:28.570Z,-0.60
2018-02-22T02:30:56.110Z,-0.61
2018-02-22T02:33:23.584Z,-0.66
2018-02-22T02:35:51.046Z,-0.64
2018-02-22T02:38:18.605Z,-0.62
2018-02-22T02:40:46.118Z,-0.60
2018-02-22T02:43:13.551Z,-0.63
2018-02-22T02:45:41.046Z,-0.63
2018-02-22T02:48:08.503Z,-0.62
2018-02-22T02:50:35.987Z,-0.66
2018-02-22T02:53:03.462Z,-0.71
2018-02-22T02:55:31.023Z,-0.71
2018-02-22T02:57:58.502Z,-0.70
2018-02-22T03:00:25.967Z,-0.72
2018-02-22T03:02:53.444Z,-0.69
2018-02-22T03:05:20.938Z,-0.68
2018-02-22T03:07:48.397Z,-0.68
2018-02-22T03:10:15.863Z,-0.66
2018-02-22T03:12:43.443Z,-0.65
2018-02-22T03:15:10.986Z,-0.63
2018-02-22T03:17:38.554Z,-0.64
2018-02-22T03:20:06.212Z,-0.69
2018-02-22T03:22:33.708Z,-0.71
2018-02-22T03:25:01.168Z,-0.75
2018-02-22T03:27:28.643Z,-0.78
2018-02-22T03:29:56.105Z,-0.78
2018-02-22T03:32:23.568Z,-0.79
2018-02-22T03:34:51.065Z,-0.80
2018-02-22T03:37:18.622Z,-0.87
2018-02-22T03:39:46.083Z,-0.89
2018-02-22T03:42:13.557Z,-0.88
2018-02-22T03:44:41.013Z,-0.95
2018-02-22T03:47:08.476Z,-0.94
2018-02-22T03:49:35.966Z,-0.96
2018-02-22T03:52:03.426Z,-1.03
2018-02-22T03:54:30.887Z,-1.10
2018-02-22T03:56:58.390Z,-1.15
2018-02-22T03:59:25.854Z,-1.24
2018-02-22T04:01:53.315Z,-1.29
2018-02-22T04:04:20.816Z,-1.35
2018-02-22T04:06:48.275Z,-1.39
2018-02-22T04:09:15.738Z,-1.44
2018-02-22T04:11:43.211Z,-1.51
2018-02-22T04:14:10.688Z,-1.55
2018-02-22T04:16:38.241Z,-1.56
2018-02-22T04:19:05.714Z,-1.56
2018-02-22T04:21:33.199Z,-1.57
2018-02-22T04:24:00.661Z,-1.60
2018-02-22T04:26:28.117Z,-1.63
2018-02-22T04:28:55.594Z,-1.63
2018-02-22T04:31:23.080Z,-1.65
2018-02-22T04:33:50.549Z,-1.67
2018-02-22T04:36:18.015Z,-1.62
2018-02-22T04:38:45.494Z,-1.61
2018-02-22T04:41:13.006Z,-1.62
2018-02-22T04:43:40.563Z,-1.56
2018-02-22T04:46:09.092Z,-1.66
2018-02-22T04:48:36.582Z,-1.71
2018-02-22T04:51:04.065Z,-1.74
2018-02-22T04:53:31.623Z,-1.74
2018-02-22T04:55:59.109Z,-1.77
2018-02-22T04:58:26.563Z,-1.82
2018-02-22T05:00:54.031Z,-1.84
2018-02-22T05:03:22.333Z,-1.89
2018-02-22T05:05:49.791Z,-1.90
2018-02-22T05:08:17.250Z,-1.90
2018-02-22T05:10:44.746Z,-1.90
2018-02-22T05:13:12.221Z,-1.91
2018-02-22T05:15:39.685Z,-1.94
2018-02-22T05:18:07.219Z,-1.96
2018-02-22T05:20:34.771Z,-1.93
2018-02-22T05:23:03.261Z,-1.91
2018-02-22T05:25:30.749Z,-1.97
2018-02-22T05:27:58.223Z,-1.99
2018-02-22T05:30:25.709Z,-2.04
2018-02-22T05:32:53.187Z,-2.09
2018-02-22T05:35:20.678Z,-2.12
2018-02-22T05:37:48.137Z,-2.14
2018-02-22T05:40:15.598Z,-2.17
2018-02-22T05:42:43.095Z,-2.14
2018-02-22T05:45:10.570Z,-2.12
2018-02-22T05:47:38.025Z,-2.15
2018-02-22T05:50:05.522Z,-2.16
2018-02-22T05:52:33.031Z,-2.17
2018-02-22T05:55:00.490Z,-2.17
2018-02-22T05:57:27.986Z,-2.19
2018-02-22T05:59:55.522Z,-2.22
2018-02-22T06:02:22.987Z,-2.26
2018-02-22T06:04:50.492Z,-2.28
2018-02-22T06:07:17.958Z,-2.32
2018-02-22T06:09:45.430Z,-2.30
2018-02-22T06:12:13.017Z,-2.26
2018-02-22T06:14:40.565Z,-2.26
2018-02-22T06:17:08.074Z,-2.08
2018-02-22T06:19:35.569Z,-2.13
2018-02-22T06:22:03.030Z,-2.19
2018-02-22T06:24:30.494Z,-2.21
2018-02-22T06:26:57.965Z,-2.22
2018-02-22T06:29:25.460Z,-2.25
2018-02-22T06:31:52.958Z,-2.31
2018-02-22T06:34:20.450Z,-2.28
2018-02-22T06:36:47.987Z,-2.22
2018-02-22T06:39:15.482Z,-2.23
2018-02-22T06:41:43.003Z,-2.25
2018-02-22T06:44:10.563Z,-2.24
2018-02-22T06:46:38.117Z,-2.22
2018-02-22T06:49:05.690Z,-2.20
2018-02-22T06:51:33.159Z,-2.16
2018-02-22T06:54:00.650Z,-2.14
2018-02-22T06:56:28.114Z,-2.13
2018-02-22T06:58:55.590Z,-2.07
2018-02-22T07:01:23.076Z,-2.02
2018-02-22T07:03:50.542Z,-1.98
2018-02-22T07:06:18.011Z,-1.96
2018-02-22T07:08:45.534Z,-1.95
2018-02-22T07:11:12.994Z,-1.91
2018-02-22T07:13:40.456Z,-1.89
2018-02-22T07:16:07.938Z,-1.91
2018-02-22T07:18:35.479Z,-1.87
2018-02-22T07:21:03.035Z,-1.79
2018-02-22T07:23:30.590Z,-1.73
2018-02-22T07:25:58.047Z,-1.71
2018-02-22T07:28:25.606Z,-1.67
2018-02-22T07:30:53.079Z,-1.59
2018-02-22T07:33:20.548Z,-1.51
2018-02-22T07:35:48.030Z,-1.44
2018-02-22T07:38:15.489Z,-1.42
2018-02-22T07:40:42.999Z,-1.38
2018-02-22T07:43:10.509Z,-1.40
2018-02-22T07:45:37.962Z,-1.35
2018-02-22T07:48:05.418Z,-1.25
2018-02-22T07:50:32.930Z,-1.22
2018-02-22T07:53:00.393Z,-1.17
2018-02-22T07:55:27.885Z,-1.13
2018-02-22T07:57:55.364Z,-1.17
2018-02-22T08:00:22.838Z,-1.14
2018-02-22T08:02:50.302Z,-1.07
2018-02-22T08:05:17.799Z,-1.01
2018-02-22T08:07:45.261Z,-0.97
2018-02-22T08:10:12.783Z,-0.91
2018-02-22T08:12:40.274Z,-0.85
2018-02-22T08:15:07.741Z,-0.87
2018-02-22T08:17:35.265Z,-0.84
2018-02-22T08:20:02.776Z,-0.70
2018-02-22T08:22:30.319Z,-0.57
2018-02-22T08:24:57.791Z,-0.58
2018-02-22T08:27:25.294Z,-0.51
2018-02-22T08:29:52.820Z,-0.41
2018-02-22T08:32:20.305Z,-0.34
2018-02-22T08:34:47.775Z,-0.27
2018-02-22T08:37:15.323Z,-0.13
2018-02-22T08:39:42.834Z,-0.03
2018-02-22T08:42:10.291Z,0.07
2018-02-22T08:44:37.748Z,0.17
2018-02-22T08:47:05.226Z,0.32
2018-02-22T08:49:32.703Z,0.42
2018-02-22T08:52:00.162Z,0.58
2018-02-22T08:54:27.658Z,0.62
2018-02-22T08:56:55.114Z,0.68
2018-02-22T08:59:22.622Z,0.73
2018-02-22T09:01:50.109Z,0.77
2018-02-22T09:04:17.566Z,0.74
2018-02-22T09:06:45.018Z,0.83
2018-02-22T09:09:12.486Z,0.94
2018-02-22T09:11:40.035Z,0.96
2018-02-22T09:14:07.533Z,1.05
2018-02-22T09:16:34.994Z,1.16
2018-02-22T09:19:02.461Z,1.26
2018-02-22T09:21:29.939Z,1.44
2018-02-22T09:23:57.418Z,1.41
2018-02-22T09:26:24.882Z,1.44
2018-02-22T09:28:52.376Z,1.48
2018-02-22T09:31:19.838Z,1.56
2018-02-22T09:33:47.321Z,1.65
2018-02-22T09:36:14.773Z,1.54
2018-02-22T09:38:42.229Z,1.53
2018-02-22T09:41:09.718Z,1.91
2018-02-22T09:43:37.169Z,2.48
2018-02-22T09:46:04.632Z,2.78
2018-02-22T09:48:32.112Z,2.40
2018-02-22T09:50:59.573Z,1.97
2018-02-22T09:53:27.102Z,1.89
2018-02-22T09:55:54.669Z,2.03
2018-02-22T09:58:22.135Z,2.12
2018-02-22T10:00:49.594Z,2.01
2018-02-22T10:03:17.088Z,2.11
2018-02-22T10:05:44.551Z,2.22
2018-02-22T10:08:12.011Z,2.29
2018-02-22T10:10:39.518Z,2.34
2018-02-22T10:13:06.970Z,2.39
2018-02-22T10:15:34.528Z,2.32
2018-02-22T10:18:01.982Z,2.35
2018-02-22T10:20:29.438Z,2.50
2018-02-22T10:22:57.010Z,2.67
2018-02-22T10:25:24.515Z,2.60
2018-02-22T10:27:52.858Z,2.43
2018-02-22T10:30:20.411Z,2.39
2018-02-22T10:32:47.878Z,2.43
2018-02-22T10:35:15.360Z,2.51
2018-02-22T10:37:42.830Z,2.60
2018-02-22T10:40:10.283Z,2.81
2018-02-22T10:42:37.738Z,2.98
2018-02-22T10:45:05.223Z,3.05
2018-02-22T10:47:32.707Z,2.83
2018-02-22T10:50:00.275Z,2.64
2018-02-22T10:52:27.777Z,2.51
2018-02-22T10:54:55.290Z,2.34
2018-02-22T10:57:22.738Z,2.39
2018-02-22T10:59:50.220Z,2.61
2018-02-22T11:02:23.301Z,2.58
2018-02-22T11:04:50.891Z,2.52
2018-02-22T11:07:18.355Z,2.74
2018-02-22T11:09:45.805Z,2.75
2018-02-22T11:12:13.282Z,2.86
2018-02-22T11:14:40.745Z,2.94
2018-02-22T11:17:08.198Z,3.11
2018-02-22T11:19:35.685Z,3.26
2018-02-22T11:22:03.151Z,3.46
2018-02-22T11:24:30.609Z,3.67
2018-02-22T11:26:58.109Z,3.52
2018-02-22T11:29:25.647Z,3.27
2018-02-22T11:31:53.098Z,3.25
2018-02-22T11:34:20.573Z,3.41
2018-02-22T11:36:48.020Z,3.54
2018-02-22T11:39:15.481Z,3.61
2018-02-22T11:41:43.035Z,3.54
2018-02-22T11:44:10.511Z,3.48
2018-02-22T11:46:38.059Z,3.46
2018-02-22T11:49:05.577Z,3.73
2018-02-22T11:51:33.028Z,3.85
2018-02-22T11:54:00.487Z,3.65
2018-02-22T11:56:27.999Z,3.37
2018-02-22T11:58:55.458Z,3.17
2018-02-22T12:01:23.015Z,3.22
2018-02-22T12:03:50.490Z,3.20
2018-02-22T12:06:17.947Z,3.43
2018-02-22T12:08:45.491Z,3.55
2018-02-22T12:11:12.970Z,3.54
2018-02-22T12:13:40.461Z,3.39
2018-02-22T12:16:07.918Z,3.47
2018-02-22T12:18:35.417Z,3.54
2018-02-22T12:21:02.879Z,3.48
2018-02-22T12:23:30.335Z,3.46
2018-02-22T12:25:57.806Z,3.37
2018-02-22T12:28:25.254Z,3.39
2018-02-22T12:30:52.777Z,3.59
2018-02-22T12:33:20.267Z,3.73
2018-02-22T12:35:47.774Z,3.87
2018-02-22T12:38:15.335Z,3.93
2018-02-22T12:40:42.890Z,4.11
2018-02-22T12:43:10.346Z,4.15
2018-02-22T12:45:37.838Z,4.29
2018-02-22T12:48:05.362Z,4.13
2018-02-22T12:50:32.823Z,3.77
2018-02-22T12:53:00.274Z,3.90
2018-02-22T12:55:27.845Z,4.12
2018-02-22T12:57:55.296Z,3.99
2018-02-22T13:00:22.767Z,3.87
2018-02-22T13:02:50.314Z,3.71
2018-02-22T13:05:17.822Z,3.75
2018-02-22T13:07:45.278Z,3.62
2018-02-22T13:10:12.786Z,3.56
2018-02-22T13:12:40.346Z,3.62
2018-02-22T13:15:07.806Z,3.61
2018-02-22T13:17:35.290Z,3.59
2018-02-22T13:20:02.747Z,3.57
2018-02-22T13:22:30.278Z,3.46
2018-02-22T13:24:57.758Z,3.61
2018-02-22T13:27:25.243Z,3.53
2018-02-22T13:29:52.710Z,3.45
2018-02-22T13:32:20.187Z,3.46
2018-02-22T13:34:47.646Z,3.17
2018-02-22T13:37:26.814Z,3.24
2018-02-22T13:39:54.267Z,3.44
2018-02-22T13:42:21.761Z,3.40
2018-02-22T13:45:01.042Z,3.28
2018-02-22T13:47:28.552Z,3.30
2018-02-22T13:50:07.922Z,3.34
2018-02-22T13:52:35.409Z,3.57
2018-02-22T13:55:02.954Z,3.87
2018-02-22T13:57:30.411Z,4.14
2018-02-22T13:59:57.905Z,4.38
2018-02-22T14:02:26.161Z,4.58
2018-02-22T14:04:53.642Z,4.62
2018-02-22T14:07:21.111Z,4.75
2018-02-22T14:09:48.670Z,4.71
2018-02-22T14:12:16.139Z,4.38
2018-02-22T14:14:43.633Z,3.91
2018-02-22T14:17:11.103Z,3.67
2018-02-22T14:19:38.650Z,3.47
2018-02-22T14:22:06.114Z,3.55
2018-02-22T14:24:33.615Z,3.78
2018-02-22T14:27:01.087Z,3.73
2018-02-22T14:29:28.542Z,3.79
2018-02-22T14:31:56.013Z,3.58
2018-02-22T14:34:23.473Z,3.65
2018-02-22T14:36:50.965Z,3.72
2018-02-22T14:39:18.422Z,3.57
2018-02-22T14:41:45.968Z,3.40
2018-02-22T14:44:13.419Z,3.30
2018-02-22T14:46:40.882Z,3.19
2018-02-22T14:49:08.347Z,3.11
2018-02-22T14:51:35.814Z,3.17
2018-02-22T14:54:03.274Z,3.02
2018-02-22T14:56:30.735Z,2.92
2018-02-22T14:58:58.274Z,2.95
2018-02-22T15:01:25.749Z,2.81
2018-02-22T15:03:53.210Z,2.85
2018-02-22T15:06:20.742Z,2.84
2018-02-22T15:08:48.194Z,2.78
2018-02-22T15:11:15.657Z,2.71
2018-02-22T15:13:43.130Z,2.64
2018-02-22T15:16:10.593Z,2.57
2018-02-22T15:18:38.131Z,2.52
2018-02-22T15:21:05.597Z,2.52
2018-02-22T15:23:33.149Z,2.62
2018-02-22T15:26:00.598Z,2.66
2018-02-22T15:28:28.080Z,2.60
2018-02-22T15:30:55.570Z,2.59
2018-02-22T15:33:23.022Z,2.54
2018-02-22T15:35:50.491Z,2.47
2018-02-22T15:38:18.028Z,2.50
2018-02-22T15:40:45.474Z,2.36
2018-02-22T15:43:12.927Z,2.38
2018-02-22T15:45:40.475Z,2.40
2018-02-22T15:48:07.926Z,2.48
2018-02-22T15:50:35.401Z,2.49
2018-02-22T15:53:02.890Z,2.44
2018-02-22T15:55:30.370Z,2.41
2018-02-22T15:57:57.824Z,2.49
2018-02-22T16:00:25.290Z,2.54
2018-02-22T16:02:52.763Z,2.39
2018-02-22T16:05:20.214Z,2.22
2018-02-22T16:07:47.690Z,2.10
2018-02-22T16:10:15.154Z,2.04
2018-02-22T16:12:42.610Z,2.02
2018-02-22T16:15:10.167Z,1.87
2018-02-22T16:17:37.622Z,1.84
2018-02-22T16:20:05.095Z,1.87
2018-02-22T16:22:32.646Z,1.82
2018-02-22T16:25:00.135Z,1.84
2018-02-22T16:27:27.650Z,1.76
2018-02-22T16:29:55.127Z,1.76
2018-02-22T16:32:22.594Z,1.73
2018-02-22T16:34:50.046Z,1.72
2018-02-22T16:37:17.506Z,1.69
2018-02-22T16:39:45.034Z,1.68
2018-02-22T16:42:12.486Z,1.65
2018-02-22T16:44:39.982Z,1.64
2018-02-22T16:47:07.441Z,1.67
2018-02-22T16:49:34.917Z,1.75
2018-02-22T16:52:02.366Z,1.75
2018-02-22T16:54:29.837Z,1.77
2018-02-22T16:56:57.365Z,1.77
2018-02-22T16:59:24.953Z,1.73
2018-02-22T17:01:52.509Z,1.76
2018-02-22T17:04:19.963Z,1.76
2018-02-22T17:06:47.435Z,1.73
2018-02-22T17:09:14.927Z,1.72
2018-02-22T17:11:42.493Z,1.70
2018-02-22T17:14:09.951Z,1.49
2018-02-22T17:16:37.456Z,1.41
2018-02-22T17:19:04.923Z,1.35
2018-02-22T17:21:32.394Z,1.33
2018-02-22T17:23:59.890Z,1.37
2018-02-22T17:26:33.039Z,1.40
2018-02-22T17:29:06.139Z,1.33
2018-02-22T17:31:39.102Z,1.26
2018-02-22T17:34:06.562Z,1.24
2018-02-22T17:36:38.598Z,1.22
2018-02-22T17:39:17.739Z,1.23
2018-02-22T17:41:45.230Z,1.26
2018-02-22T17:44:12.686Z,1.29
2018-02-22T17:46:40.146Z,1.33
2018-02-22T17:49:07.631Z,1.25
2018-02-22T17:51:35.083Z,1.14
2018-02-22T17:54:02.545Z,1.08
2018-02-22T17:56:30.019Z,1.11
2018-02-22T17:58:57.474Z,1.14
2018-02-22T18:01:24.941Z,1.12
2018-02-22T18:03:52.445Z,1.22
2018-02-22T18:06:19.918Z,1.12
2018-02-22T18:08:47.374Z,1.00
2018-02-22T18:11:15.434Z,0.96
2018-02-22T18:13:43.106Z,1.00
2018-02-22T18:16:10.622Z,0.99
2018-02-22T18:18:38.422Z,0.97
2018-02-22T18:21:06.031Z,0.92
2018-02-22T18:23:34.112Z,0.88
2018-02-22T18:26:02.151Z,0.87
2018-02-22T18:28:29.678Z,0.86
2018-02-22T18:30:57.707Z,0.83
2018-02-22T18:33:25.249Z,0.81
2018-02-22T18:35:52.733Z,0.83
2018-02-22T18:38:20.244Z,0.84
2018-02-22T18:40:53.262Z,0.85
2018-02-22T18:43:26.309Z,0.83
2018-02-22T18:45:53.784Z,0.83
2018-02-22T18:48:21.265Z,0.80
2018-02-22T18:50:48.749Z,0.81
2018-02-22T18:53:16.210Z,0.83
2018-02-22T18:55:43.674Z,0.83
2018-02-22T18:58:11.547Z,0.85
2018-02-22T19:00:38.989Z,0.79
2018-02-22T19:03:06.694Z,0.76
2018-02-22T19:05:34.245Z,0.72
2018-02-22T19:08:01.708Z,0.75
2018-02-22T19:10:29.264Z,0.77
2018-02-22T19:12:56.845Z,0.77
2018-02-22T19:15:24.338Z,0.72
2018-02-22T19:17:51.823Z,0.71
2018-02-22T19:20:19.270Z,0.70
2018-02-22T19:22:46.814Z,0.68
2018-02-22T19:25:14.275Z,0.63
2018-02-22T19:27:41.810Z,0.61
2018-02-22T19:30:09.351Z,0.59
2018-02-22T19:32:36.805Z,0.56
2018-02-22T19:35:04.282Z,0.49
2018-02-22T19:37:31.758Z,0.48
2018-02-22T19:39:59.274Z,0.42
2018-02-22T19:42:26.818Z,0.39
2018-02-22T19:44:54.282Z,0.39
2018-02-22T19:47:21.792Z,0.39
2018-02-22T19:49:49.269Z,0.35
2018-02-22T19:52:16.719Z,0.34
2018-02-22T19:54:44.180Z,0.34
2018-02-22T19:57:11.679Z,0.36
2018-02-22T19:59:39.133Z,0.38
2018-02-22T20:02:06.598Z,0.41
2018-02-22T20:04:34.061Z,0.47
2018-02-22T20:07:01.549Z,0.58
2018-02-22T20:09:29.067Z,0.58
2018-02-22T20:11:56.621Z,0.69
2018-02-22T20:14:24.126Z,0.70
2018-02-22T20:16:51.625Z,0.59
2018-02-22T20:19:19.049Z,0.60
2018-02-22T20:21:46.519Z,0.61
2018-02-22T20:24:14.005Z,0.59
2018-02-22T20:26:41.478Z,0.61
2018-02-22T20:29:08.926Z,0.62
2018-02-22T20:31:36.398Z,0.50
2018-02-22T20:34:03.862Z,0.44
2018-02-22T20:36:31.326Z,0.37
2018-02-22T20:38:58.814Z,0.36
2018-02-22T20:41:26.266Z,0.30
2018-02-22T20:43:53.791Z,0.27
2018-02-22T20:46:21.335Z,0.28
2018-02-22T20:48:48.798Z,0.30
2018-02-22T20:51:21.818Z,0.32
2018-02-22T20:53:49.286Z,0.31
2018-02-22T20:56:16.736Z,0.40
2018-02-22T20:58:44.197Z,0.47
2018-02-22T21:01:11.671Z,0.66
2018-02-22T21:03:39.610Z,0.59
2018-02-22T21:06:07.086Z,0.48
2018-02-22T21:08:34.555Z,0.49
2018-02-22T21:11:02.029Z,0.51
2018-02-22T21:13:29.494Z,0.57
2018-02-22T21:15:56.958Z,0.59
2018-02-22T21:18:24.519Z,0.62
2018-02-22T21:20:51.978Z,0.62
2018-02-22T21:23:19.451Z,0.55
2018-02-22T21:25:46.916Z,0.54
2018-02-22T21:28:14.451Z,0.48
2018-02-22T21:30:41.934Z,0.41
2018-02-22T21:33:09.393Z,0.38
2018-02-22T21:35:36.866Z,0.32
2018-02-22T21:38:04.432Z,0.30
2018-02-22T21:40:31.907Z,0.31
2018-02-22T21:42:59.360Z,0.39
2018-02-22T21:45:26.856Z,0.42
2018-02-22T21:47:54.437Z,0.46
2018-02-22T21:50:21.965Z,0.48
2018-02-22T21:52:49.427Z,0.51
2018-02-22T21:55:16.987Z,0.40
2018-02-22T21:57:44.442Z,0.41
2018-02-22T22:00:11.903Z,0.47
2018-02-22T22:02:39.411Z,0.49
2018-02-22T22:05:06.870Z,0.50
2018-02-22T22:07:34.442Z,0.37
2018-02-22T22:10:01.902Z,0.30
2018-02-22T22:12:29.359Z,0.31
2018-02-22T22:14:56.831Z,0.36
2018-02-22T22:17:24.306Z,0.35
2018-02-22T22:19:51.799Z,0.38
2018-02-22T22:22:19.250Z,0.42
2018-02-22T22:24:46.839Z,0.41
2018-02-22T22:27:14.283Z,0.25
2018-02-22T22:29:41.803Z,0.10
2018-02-22T22:32:09.280Z,0.03
2018-02-22T22:34:36.750Z,0.04
2018-02-22T22:37:04.233Z,0.13
2018-02-22T22:39:31.696Z,0.17
2018-02-22T22:41:59.154Z,0.19
2018-02-22T22:44:26.659Z,0.18
2018-02-22T22:46:54.118Z,0.21
2018-02-22T22:49:21.594Z,0.23
2018-02-22T22:51:49.124Z,0.26
2018-02-22T22:54:16.622Z,0.22
2018-02-22T22:56:44.079Z,0.17
2018-02-22T22:59:11.622Z,0.11
2018-02-22T23:01:39.106Z,0.08
2018-02-22T23:04:06.619Z,0.08
2018-02-22T23:06:34.190Z,0.11
2018-02-22T23:09:01.654Z,0.12
2018-02-22T23:11:29.139Z,0.06
2018-02-22T23:13:56.598Z,0.06
2018-02-22T23:16:24.106Z,0.06
2018-02-22T23:18:51.577Z,0.06
2018-02-22T23:21:19.094Z,0.06
2018-02-22T23:23:46.570Z,-0.04
2018-02-22T23:26:14.131Z,-0.17
2018-02-22T23:28:41.620Z,-0.24
2018-02-22T23:31:09.097Z,-0.44
2018-02-22T23:33:36.561Z,-0.67
2018-02-22T23:36:04.034Z,-0.73
2018-02-22T23:38:31.502Z,-0.80
2018-02-22T23:40:59.869Z,-0.84
2018-02-22T23:43:27.331Z,-0.92
2018-02-22T23:45:54.803Z,-0.96
2018-02-22T23:48:22.257Z,-1.02
2018-02-22T23:50:49.743Z,-1.07
2018-02-22T23:53:17.214Z,-1.12
2018-02-22T23:55:44.711Z,-1.14
2018-02-22T23:58:12.184Z,-1.19
